Bookmark and Share
Track history (hours):
 

New Mighty

Last reported at 2014-Mar-28 03:19 UTC. Time now 2014-Apr-16 07:41 UTC.
Position N 34°40' E 139°07'.
Warning: this ship's position is 19 days out of date.

Length 292 m; draft 11.6 m.

Type: Cargo ship. MMSI: 354199000.

NotesDate/timePositionNaut miles runAvg speedWind from/ knotsBaromVisibWave heightAir tempDewpointWater temp
2014-Mar-28 03:19N 34°40' E 139°07'2413.7
2014-Mar-28 01:32N 34°56' E 139°29'1414.0
2014-Mar-28 00:33N 35°04' E 139°42'1211.8
2014-Mar-27 23:33N 35°16' E 139°46'9 9.5
2014-Mar-27 22:34N 35°25' E 139°47'5 5.1
2014-Mar-27 21:31N 35°22' E 139°52'0 0.0
2014-Mar-27 20:31N 35°22' E 139°52'0 0.0
2014-Mar-27 19:31N 35°22' E 139°52'0 0.0
2014-Mar-27 18:31N 35°22' E 139°52'0 0.0
2014-Mar-27 17:31N 35°22' E 139°52'0 0.0
2014-Mar-27 16:31N 35°22' E 139°52'0 0.0
2014-Mar-27 15:28N 35°22' E 139°52'0 0.0
2014-Mar-27 14:31N 35°22' E 139°52'0 0.0
2014-Mar-27 13:31N 35°22' E 139°52'0 0.0
2014-Mar-27 12:28N 35°22' E 139°52'0 0.0
2014-Mar-27 11:31N 35°22' E 139°52'0 0.0
2014-Mar-27 10:28N 35°22' E 139°52'0 0.0
2014-Mar-27 09:31N 35°22' E 139°52'0 0.0
2014-Mar-27 08:28N 35°22' E 139°52'0 0.0
2014-Mar-27 07:31N 35°22' E 139°52'0 0.0
2014-Mar-27 06:31N 35°22' E 139°52'0 0.0
2014-Mar-27 05:28N 35°22' E 139°52'0 0.0
2014-Mar-27 04:31N 35°22' E 139°52'0 0.0
2014-Mar-27 03:28N 35°22' E 139°52'0 0.0
2014-Mar-27 02:31N 35°22' E 139°52'0 0.0
2014-Mar-27 01:28N 35°22' E 139°52'0 0.0
2014-Mar-27 00:28N 35°22' E 139°52'0 0.0
2014-Mar-26 23:31N 35°22' E 139°52'0 0.0
2014-Mar-26 20:31N 35°22' E 139°52'0 0.0
2014-Mar-26 19:31N 35°22' E 139°52'0 0.0
2014-Mar-26 17:31N 35°22' E 139°52'0 0.0
2014-Mar-26 16:31N 35°22' E 139°52'0 0.0
2014-Mar-26 15:25N 35°22' E 139°52'0 0.0
2014-Mar-26 14:31N 35°22' E 139°52'0 0.0
2014-Mar-26 13:31N 35°22' E 139°52'0 0.0
2014-Mar-26 12:31N 35°22' E 139°52'0 0.0
2014-Mar-26 11:22N 35°22' E 139°52'0 0.0
2014-Mar-26 10:28N 35°22' E 139°52'0 0.0
2014-Mar-26 09:31N 35°22' E 139°52'0 0.0
2014-Mar-26 08:31N 35°22' E 139°52'0 0.0
2014-Mar-26 07:31N 35°22' E 139°52'0 0.0
2014-Mar-26 00:31N 35°22' E 139°52'0 0.0
2014-Mar-25 23:31N 35°22' E 139°52'0 0.0
2014-Mar-25 22:31N 35°22' E 139°52'0 0.0
2014-Mar-25 21:31N 35°22' E 139°52'0 0.0
2014-Mar-25 20:31N 35°22' E 139°52'0 0.0
2014-Mar-25 19:31N 35°22' E 139°52'0 0.0
2014-Mar-25 17:28N 35°22' E 139°52'0 0.0
2014-Mar-25 16:31N 35°22' E 139°52'0 0.0
2014-Mar-25 15:31N 35°22' E 139°52'0 0.0
2014-Mar-25 14:28N 35°22' E 139°52'0 0.0
2014-Mar-25 13:28N 35°22' E 139°52'0 0.0
2014-Mar-25 12:31N 35°22' E 139°52'2 2.5
2014-Mar-25 11:33N 35°23' E 139°50'4 3.5
2014-Mar-25 10:27N 35°27' E 139°51'0 0.2
2014-Mar-25 09:30N 35°27' E 139°51'0 0.1
2014-Mar-25 08:24N 35°27' E 139°51'2 2.2
2014-Mar-25 07:33N 35°26' E 139°49'9 9.5
2014-Mar-25 06:33N 35°17' E 139°45'1010.5
2014-Mar-25 05:33N 35°07' E 139°46'1212.2
2014-Mar-25 04:33N 34°54' E 139°45'1311.9
2014-Mar-25 03:25N 34°42' E 139°51'  

Dump ship's entire track history

sailing weather and tide predictions

New Mighty — 3FMN — position and weather